Time;durP1;ratioP1;P1;durP2;ratioP2;P2;SDS_P1;SDS_P2;PMS_P1;PMS_P2;Temp;Humidity;BMP_temperature;BMP_pressure;BME280_temperature;BME280_humidity;BME280_pressure;Samples;Min_cycle;Max_cycle;Signal;HPM_P1;HPM_P2
2021/04/28 00:00:22;;;;;;;76.60;34.10;;;;;;;-0.23;77.69;99596.63;3483822;28;20061;-44
2021/04/28 00:02:03;;;;;;;;;;;;;;;-0.24;77.42;99599.94;3480583;28;20510;-44
2021/04/28 00:03:45;;;;;;;81.80;33.85;;;;;;;-0.26;77.70;99598.13;3481460;28;19931;-50
2021/04/28 00:05:27;;;;;;;79.72;34.13;;;;;;;-0.29;77.43;99598.81;3481376;28;20494;-44
2021/04/28 00:07:09;;;;;;;80.60;34.85;;;;;;;-0.33;77.06;99594.34;3480532;28;20510;-44
2021/04/28 00:08:51;;;;;;;82.38;34.45;;;;;;;-0.37;77.06;99594.97;3483557;28;20049;-44
2021/04/28 00:10:35;;;;;;;79.30;31.73;;;;;;;-0.40;76.89;99598.22;3478514;28;20053;-43
2021/04/28 00:12:16;;;;;;;72.78;33.55;;;;;;;-0.45;77.29;99594.53;3483134;28;20543;-44
2021/04/28 00:13:58;;;;;;;78.00;34.63;;;;;;;-0.47;77.33;99597.81;3477927;28;20061;-44
2021/04/28 00:15:42;;;;;;;71.18;32.70;;;;;;;-0.50;77.70;99602.72;3482195;28;20084;-44
2021/04/28 00:17:23;;;;;;;75.93;32.38;;;;;;;-0.52;77.89;99602.63;3481107;28;20053;-44
2021/04/28 00:19:05;;;;;;;61.00;27.75;;;;;;;-0.52;78.35;99605.16;3481043;28;20045;-44
2021/04/28 00:20:48;;;;;;;62.22;28.27;;;;;;;-0.49;78.81;99609.56;3469906;28;20045;-50
2021/04/28 00:22:30;;;;;;;61.25;26.45;;;;;;;-0.47;78.76;99603.75;3474235;28;20057;-45
2021/04/28 00:24:13;;;;;;;64.15;28.52;;;;;;;-0.44;78.96;99610.72;3483825;28;20052;-50
2021/04/28 00:25:54;;;;;;;57.10;27.48;;;;;;;-0.44;78.61;99605.63;3477788;28;20056;-43
2021/04/28 00:27:36;;;;;;;58.65;27.95;;;;;;;-0.44;78.46;99614.13;3481267;28;20421;-44
2021/04/28 00:29:19;;;;;;;73.32;29.25;;;;;;;-0.46;78.38;99600.44;3481067;28;20569;-44
2021/04/28 00:31:00;;;;;;;64.65;30.25;;;;;;;-0.45;78.18;99608.94;3480583;28;20106;-44
2021/04/28 00:32:43;;;;;;;63.17;27.60;;;;;;;-0.47;77.88;99603.75;3469299;28;20053;-43
2021/04/28 00:34:24;;;;;;;70.47;29.85;;;;;;;-0.45;77.46;99606.41;3475863;28;20529;-49
2021/04/28 00:36:07;;;;;;;65.45;29.38;;;;;;;-0.46;77.96;99604.66;3483093;28;20053;-50
2021/04/28 00:37:49;;;;;;;66.95;29.42;;;;;;;-0.46;78.13;99613.19;3477440;28;20532;-51
2021/04/28 00:39:31;;;;;;;68.88;30.00;;;;;;;-0.46;78.17;99604.66;3481164;28;20049;-50
2021/04/28 00:41:12;;;;;;;71.25;31.45;;;;;;;-0.47;78.43;99613.09;3480597;28;20045;-49
2021/04/28 00:42:55;;;;;;;67.15;29.35;;;;;;;-0.48;78.75;99607.13;3480520;28;20056;-44
2021/04/28 00:44:36;;;;;;;66.40;29.25;;;;;;;-0.48;79.09;99611.31;3469347;28;20079;-44
2021/04/28 00:46:19;;;;;;;67.97;29.83;;;;;;;-0.49;78.90;99607.91;3473464;28;20102;-44
2021/04/28 00:48:04;;;;;;;71.47;30.95;;;;;;;-0.50;78.96;99611.25;3483164;28;20053;-44
2021/04/28 00:49:46;;;;;;;66.40;30.08;;;;;;;-0.51;78.50;99608.63;3480377;28;20053;-44
2021/04/28 00:51:28;;;;;;;67.40;29.05;;;;;;;-0.53;78.61;99611.94;3479567;28;20052;-50
2021/04/28 00:53:11;;;;;;;63.80;29.33;;;;;;;-0.55;78.88;99616.09;3481930;28;20049;-50
2021/04/28 00:54:53;;;;;;;69.10;30.05;;;;;;;-0.56;78.73;99609.22;3477196;28;20533;-50
2021/04/28 00:56:34;;;;;;;60.33;28.75;;;;;;;-0.57;78.81;99612.56;3483751;28;20480;-44
2021/04/28 00:58:16;;;;;;;69.03;29.23;;;;;;;-0.59;78.87;99609.06;3479963;28;20322;-50
2021/04/28 00:59:58;;;;;;;64.22;29.40;;;;;;;-0.60;79.07;99612.41;3482618;28;20053;-43
2021/04/28 01:01:39;;;;;;;53.58;26.20;;;;;;;-0.62;78.63;99620.75;3480173;28;20118;-52
2021/04/28 01:03:22;;;;;;;61.70;27.27;;;;;;;-0.65;78.37;99616.34;3481266;28;20492;-51
2021/04/28 01:05:06;;;;;;;57.10;25.38;;;;;;;-0.67;78.46;99612.84;3481460;28;20175;-51
2021/04/28 01:06:49;;;;;;;52.05;25.27;;;;;;;-0.70;77.90;99620.28;3478158;28;20048;-52
2021/04/28 01:08:31;;;;;;;59.85;26.45;;;;;;;-0.74;77.95;99621.78;3482928;28;20506;-52
2021/04/28 01:10:16;;;;;;;57.55;26.02;;;;;;;-0.75;78.33;99620.06;3477655;28;20048;-51
2021/04/28 01:11:57;;;;;;;55.42;26.15;;;;;;;-0.76;78.44;99617.41;3481995;28;20525;-44
2021/04/28 01:13:39;;;;;;;57.50;26.90;;;;;;;-0.79;78.81;99610.44;3478886;28;20064;-44
2021/04/28 01:15:23;;;;;;;56.88;26.13;;;;;;;-0.80;79.39;99618.91;3480584;28;20053;-44
2021/04/28 01:17:06;;;;;;;53.60;25.00;;;;;;;-0.81;79.46;99612.03;3481663;28;20106;-53
2021/04/28 01:18:47;;;;;;;54.25;25.38;;;;;;;-0.81;79.53;99611.16;3479332;28;20083;-51
2021/04/28 01:20:32;;;;;;;64.35;28.08;;;;;;;-0.82;79.33;99610.28;3482735;28;20149;-53
2021/04/28 01:22:15;;;;;;;57.20;26.55;;;;;;;-0.84;79.07;99616.94;3477827;28;20135;-51
2021/04/28 01:23:57;;;;;;;53.97;24.45;;;;;;;-0.85;78.93;99614.31;3481377;28;20414;-44
2021/04/28 01:25:39;;;;;;;65.22;26.17;;;;;;;-0.86;79.19;99613.44;3480455;28;20049;-51
2021/04/28 01:27:26;;;;;;;52.28;25.30;;;;;;;-0.87;79.45;99610.81;3479322;28;20056;-44
2021/04/28 01:29:08;;;;;;;52.63;25.50;;;;;;;-0.88;79.42;99606.50;3469630;28;20107;-44
2021/04/28 01:30:53;;;;;;;53.90;25.10;;;;;;;-0.91;79.55;99608.09;3476071;28;20059;-54
2021/04/28 01:32:39;;;;;;;57.47;24.27;;;;;;;-0.91;79.73;99608.09;3482363;28;20059;-51
2021/04/28 01:34:21;;;;;;;50.58;25.00;;;;;;;-0.92;79.46;99615.66;3479811;28;20176;-51
2021/04/28 01:36:07;;;;;;;52.53;24.65;;;;;;;-0.93;79.83;99614.75;3478980;28;20057;-43
2021/04/28 01:37:49;;;;;;;56.55;25.40;;;;;;;-0.94;80.04;99609.56;3481759;28;20536;-44
2021/04/28 01:39:31;;;;;;;51.47;23.52;;;;;;;-0.95;80.02;99611.22;3479434;28;20091;-44
2021/04/28 01:41:13;;;;;;;54.38;25.77;;;;;;;-0.96;79.79;99608.59;3482601;28;20053;-44
2021/04/28 01:42:56;;;;;;;56.10;26.30;;;;;;;-0.99;79.58;99609.31;3479346;28;20052;-50
2021/04/28 01:44:39;;;;;;;54.73;25.70;;;;;;;-0.99;79.40;99611.00;3480633;28;20053;-50
2021/04/28 01:46:25;;;;;;;61.28;26.40;;;;;;;-1.01;79.58;99608.34;3480564;28;20095;-51
2021/04/28 01:48:09;;;;;;;55.58;26.50;;;;;;;-1.04;79.83;99613.25;3479198;28;20036;-44
2021/04/28 01:49:52;;;;;;;60.55;26.83;;;;;;;-1.05;80.05;99615.69;3482230;28;20073;-44
2021/04/28 01:51:35;;;;;;;63.03;27.95;;;;;;;-1.08;79.20;99611.31;3478996;28;20052;-50
2021/04/28 01:53:18;;;;;;;64.40;27.10;;;;;;;-1.12;78.78;99612.81;3482773;28;20044;-44
2021/04/28 01:55:00;;;;;;;56.63;24.75;;;;;;;-1.16;78.54;99613.41;3477980;28;20137;-45
2021/04/28 01:56:44;;;;;;;63.90;27.15;;;;;;;-1.18;79.20;99614.97;3478974;28;20049;-44
2021/04/28 01:58:28;;;;;;;59.15;26.38;;;;;;;-1.19;79.45;99617.44;3481221;28;20060;-51
2021/04/28 02:00:10;;;;;;;;;;;;;;;-1.21;79.58;99619.00;3479542;28;21051;-50
2021/04/28 02:01:56;;;;;;;61.03;26.80;;;;;;;-1.26;79.49;99613.63;3482162;28;19932;-49
2021/04/28 02:03:38;;;;;;;63.55;27.13;;;;;;;-1.29;79.30;99613.47;3479134;28;20048;-50
2021/04/28 02:05:21;;;;;;;72.78;27.73;;;;;;;-1.31;79.95;99613.38;3480175;28;20512;-51
2021/04/28 02:07:03;;;;;;;65.53;27.02;;;;;;;-1.33;79.62;99619.16;3480873;28;20049;-54
2021/04/28 02:08:46;;;;;;;73.05;27.73;;;;;;;-1.36;79.47;99619.00;3477493;28;20525;-50
2021/04/28 02:10:28;;;;;;;67.28;27.52;;;;;;;-1.38;79.64;99612.91;3482202;28;20056;-51
2021/04/28 02:12:11;;;;;;;70.03;28.17;;;;;;;-1.39;80.10;99616.25;3478591;28;20464;-50
2021/04/28 02:13:52;;;;;;;66.32;29.33;;;;;;;-1.40;80.54;99617.03;3479923;28;20048;-52
2021/04/28 02:15:34;;;;;;;69.15;27.02;;;;;;;-1.40;80.54;99619.56;3478458;28;20072;-49
2021/04/28 02:17:17;;;;;;;59.30;25.15;;;;;;;-1.44;80.20;99615.09;3479800;28;20052;-50
2021/04/28 02:19:02;;;;;;;63.03;26.90;;;;;;;-1.49;80.38;99619.91;3481555;28;20144;-53
2021/04/28 02:20:45;;;;;;;66.05;25.00;;;;;;;-1.54;80.18;99616.19;3476448;28;20045;-50
2021/04/28 02:22:28;;;;;;;62.17;25.70;;;;;;;-1.56;80.61;99617.75;3483802;28;20053;-52
2021/04/28 02:24:12;;;;;;;57.40;24.73;;;;;;;-1.58;80.95;99622.75;3479737;28;20049;-53
2021/04/28 02:25:55;;;;;;;53.58;24.65;;;;;;;-1.58;81.38;99624.44;3483679;28;20063;-51
2021/04/28 02:27:37;;;;;;;53.63;25.65;;;;;;;-1.61;81.27;99625.13;3482167;28;20045;-52
2021/04/28 02:29:18;;;;;;;56.72;23.75;;;;;;;-1.63;81.24;99624.16;3481272;28;20049;-50
2021/04/28 02:31:00;;;;;;;56.40;24.73;;;;;;;-1.64;81.33;99627.50;3484124;28;20403;-53
2021/04/28 02:32:43;;;;;;;55.90;24.85;;;;;;;-1.67;81.42;99628.16;3482195;28;20053;-50
2021/04/28 02:34:24;;;;;;;52.42;23.52;;;;;;;-1.67;81.10;99623.06;3484401;28;20506;-52
2021/04/28 02:36:06;;;;;;;49.15;23.23;;;;;;;-1.64;81.45;99631.69;3479950;28;20071;-54
2021/04/28 02:37:52;;;;;;;50.00;23.27;;;;;;;-1.63;81.52;99633.44;3482307;28;20057;-51
2021/04/28 02:39:38;;;;;;;54.10;22.15;;;;;;;-1.62;81.42;99638.63;3482450;28;20045;-53
2021/04/28 02:41:22;;;;;;;48.97;23.77;;;;;;;-1.61;81.27;99632.78;3481032;28;20107;-50
2021/04/28 02:43:04;;;;;;;53.85;22.38;;;;;;;-1.58;81.36;99640.56;3484238;28;20060;-51
2021/04/28 02:44:47;;;;;;;51.25;23.17;;;;;;;-1.56;80.66;99635.56;3480970;28;20418;-53
2021/04/28 02:46:30;;;;;;;47.03;21.23;;;;;;;-1.55;81.04;99637.34;3483986;28;20053;-51
2021/04/28 02:48:12;;;;;;;44.92;22.20;;;;;;;-1.53;81.11;99636.63;3480600;28;20088;-53
2021/04/28 02:49:54;;;;;;;44.20;21.23;;;;;;;-1.51;80.58;99632.50;3482117;28;20049;-52
2021/04/28 02:51:37;;;;;;;51.30;21.33;;;;;;;-1.49;80.10;99630.06;3483276;28;20053;-51
2021/04/28 02:53:20;;;;;;;48.40;21.02;;;;;;;-1.48;79.84;99634.38;3479799;28;20123;-51
2021/04/28 02:55:02;;;;;;;46.55;21.42;;;;;;;-1.44;79.53;99625.28;3484764;28;20285;-44
2021/04/28 02:56:45;;;;;;;53.33;21.88;;;;;;;-1.43;79.94;99632.13;3480845;28;20057;-54
2021/04/28 02:58:28;;;;;;;54.60;22.25;;;;;;;-1.41;80.18;99631.41;3482368;28;20048;-51
2021/04/28 03:00:11;;;;;;;45.58;21.30;;;;;;;-1.39;80.40;99628.97;3480017;28;20103;-54
2021/04/28 03:01:53;;;;;;;53.58;23.10;;;;;;;-1.38;80.70;99623.09;3480516;28;20050;-54
2021/04/28 03:03:35;;;;;;;49.70;23.08;;;;;;;-1.36;80.81;99629.16;3482830;28;20087;-54
2021/04/28 03:05:19;;;;;;;51.20;23.45;;;;;;;-1.34;80.82;99628.47;3479541;28;20051;-53
2021/04/28 03:07:00;;;;;;;;;;;;;;;-1.33;80.88;99630.22;3484448;28;20087;-52
2021/04/28 03:08:43;;;;;;;47.92;22.23;;;;;;;-1.30;81.06;99634.59;3480855;28;19932;-50
2021/04/28 03:10:25;;;;;;;49.22;22.48;;;;;;;-1.26;81.19;99638.22;3482987;28;20044;-53
2021/04/28 03:12:08;;;;;;;49.00;22.42;;;;;;;-1.23;81.36;99635.84;3481909;28;20053;-50
2021/04/28 03:13:50;;;;;;;45.35;22.38;;;;;;;-1.21;81.12;99636.81;3478192;28;20052;-51
2021/04/28 03:15:31;;;;;;;55.90;22.80;;;;;;;-1.19;80.91;99637.78;3484272;28;20063;-51
2021/04/28 03:17:13;;;;;;;49.55;22.45;;;;;;;-1.16;81.04;99640.53;3479111;28;20050;-50
2021/04/28 03:18:55;;;;;;;49.10;21.67;;;;;;;-1.12;81.13;99645.00;3483840;28;20502;-52
2021/04/28 03:20:36;;;;;;;45.15;21.95;;;;;;;-1.11;80.92;99645.09;3479241;28;20525;-51
2021/04/28 03:22:19;;;;;;;48.40;21.98;;;;;;;-1.06;81.18;99639.41;3482713;28;20088;-53
2021/04/28 03:24:01;;;;;;;49.17;23.23;;;;;;;-1.02;81.25;99646.44;3482113;28;20056;-53
2021/04/28 03:25:43;;;;;;;51.88;23.63;;;;;;;-0.97;81.41;99645.06;3480564;28;20136;-53
2021/04/28 03:27:25;;;;;;;46.38;21.77;;;;;;;-0.95;80.18;99653.66;3470097;28;20057;-53
2021/04/28 03:29:07;;;;;;;51.40;23.40;;;;;;;-0.93;80.27;99652.06;3475744;28;20404;-50
2021/04/28 03:30:49;;;;;;;45.40;21.35;;;;;;;-0.89;80.34;99650.56;3483998;28;20057;-50
2021/04/28 03:32:30;;;;;;;50.47;22.30;;;;;;;-0.85;80.19;99655.94;3480016;28;20049;-51
2021/04/28 03:34:12;;;;;;;42.83;20.77;;;;;;;-0.80;80.56;99662.19;3482732;28;20056;-43
2021/04/28 03:35:54;;;;;;;44.05;20.00;;;;;;;-0.75;80.00;99657.34;3481180;28;20098;-44
2021/04/28 03:37:35;;;;;;;46.75;20.17;;;;;;;-0.70;79.47;99658.50;3481494;28;20045;-44
2021/04/28 03:39:16;;;;;;;40.78;19.98;;;;;;;-0.65;79.67;99659.66;3469833;28;20057;-44
2021/04/28 03:40:58;;;;;;;44.67;20.27;;;;;;;-0.59;79.99;99661.66;3475566;28;20430;-44
2021/04/28 03:42:40;;;;;;;41.85;19.08;;;;;;;-0.53;79.99;99660.34;3483740;28;20080;-44
2021/04/28 03:44:21;;;;;;;46.63;21.85;;;;;;;-0.45;80.27;99673.53;3479085;28;20053;-45
2021/04/28 03:46:03;;;;;;;45.80;19.08;;;;;;;-0.38;80.11;99667.13;3482619;28;20056;-44
2021/04/28 03:47:44;;;;;;;40.90;19.83;;;;;;;-0.30;79.83;99672.66;3481743;28;20056;-44
2021/04/28 03:49:26;;;;;;;41.22;18.77;;;;;;;-0.24;79.63;99673.00;3478965;28;20045;-44
2021/04/28 03:51:07;;;;;;;39.50;18.42;;;;;;;-0.17;79.63;99672.53;3483369;28;20052;-45
2021/04/28 03:52:48;;;;;;;37.90;19.13;;;;;;;-0.08;78.99;99674.72;3479006;28;20458;-44
2021/04/28 03:54:29;;;;;;;37.75;18.85;;;;;;;-0.01;78.25;99677.69;3483682;28;20077;-45
2021/04/28 03:56:11;;;;;;;46.42;17.02;;;;;;;0.08;78.48;99679.88;3480014;28;20095;-44
2021/04/28 03:57:53;;;;;;;37.75;17.80;;;;;;;0.17;78.20;99674.41;3482648;28;20059;-44
2021/04/28 03:59:35;;;;;;;37.42;16.88;;;;;;;0.29;78.37;99680.19;3481530;28;20144;-44
2021/04/28 04:01:16;;;;;;;43.20;17.92;;;;;;;0.40;77.79;99681.66;3480054;28;20053;-44
2021/04/28 04:02:57;;;;;;;40.30;17.85;;;;;;;0.53;78.00;99679.78;3482953;28;20083;-44
2021/04/28 04:04:39;;;;;;;39.83;16.55;;;;;;;0.67;77.62;99683.06;3480035;28;20057;-44
2021/04/28 04:06:21;;;;;;;39.03;16.90;;;;;;;0.81;77.20;99687.22;3483851;28;20136;-44
2021/04/28 04:08:02;;;;;;;38.92;16.60;;;;;;;0.92;76.88;99683.53;3480397;28;20048;-44
2021/04/28 04:09:44;;;;;;;42.58;17.45;;;;;;;1.07;75.97;99685.13;3482918;28;20091;-53
2021/04/28 04:11:26;;;;;;;44.33;17.10;;;;;;;1.16;75.04;99690.75;3480963;28;20060;-50
2021/04/28 04:13:08;;;;;;;41.65;16.67;;;;;;;1.25;74.03;99692.84;3477726;28;20060;-50
2021/04/28 04:14:49;;;;;;;34.35;15.85;;;;;;;1.34;73.71;99690.78;3483017;28;20057;-49
2021/04/28 04:16:31;;;;;;;31.08;16.38;;;;;;;1.43;73.19;99696.34;3478358;28;20657;-52
2021/04/28 04:18:12;;;;;;;34.30;17.27;;;;;;;1.52;73.25;99696.81;3483180;28;20506;-50
2021/04/28 04:19:53;;;;;;;35.47;16.52;;;;;;;1.63;72.54;99697.34;3480053;28;20053;-50
2021/04/28 04:21:35;;;;;;;36.60;17.48;;;;;;;1.74;73.48;99705.53;3481387;28;20049;-51
2021/04/28 04:23:16;;;;;;;37.28;15.52;;;;;;;1.86;73.35;99703.59;3472213;28;20054;-50
2021/04/28 04:24:57;;;;;;;31.42;14.15;;;;;;;1.98;71.96;99705.00;3471360;28;20053;-50
2021/04/28 04:26:39;;;;;;;27.42;12.23;;;;;;;2.08;71.00;99700.41;3483039;28;20057;-51
2021/04/28 04:28:21;;;;;;;32.00;12.50;;;;;;;2.20;70.03;99705.22;3478241;28;20048;-52
2021/04/28 04:30:05;;;;;;;24.17;12.88;;;;;;;2.34;69.26;99713.53;3483157;28;20056;-51
2021/04/28 04:31:46;;;;;;;24.05;11.55;;;;;;;2.46;68.45;99708.13;3479716;28;20048;-51
2021/04/28 04:33:28;;;;;;;25.08;11.57;;;;;;;2.61;67.87;99706.28;3482476;28;20505;-52
2021/04/28 04:35:10;;;;;;;25.10;12.55;;;;;;;2.75;67.69;99712.03;3480993;28;20058;-53
2021/04/28 04:36:52;;;;;;;28.35;11.65;;;;;;;2.90;66.53;99706.72;3480349;28;20346;-52
2021/04/28 04:38:33;;;;;;;21.85;11.05;;;;;;;3.05;65.80;99706.53;3482876;28;20049;-53
2021/04/28 04:40:15;;;;;;;19.15;9.38;;;;;;;3.19;64.29;99705.44;3479765;28;20041;-51
2021/04/28 04:41:57;;;;;;;19.70;10.00;;;;;;;3.34;63.52;99702.66;3483245;28;20064;-51
2021/04/28 04:43:39;;;;;;;17.42;7.35;;;;;;;3.51;63.49;99707.66;3478339;28;20048;-51
2021/04/28 04:45:21;;;;;;;18.30;8.05;;;;;;;3.66;64.72;99713.41;3481390;28;20048;-55
2021/04/28 04:47:04;;;;;;;16.63;8.32;;;;;;;3.80;63.10;99712.28;3481008;28;20045;-54
2021/04/28 04:48:45;;;;;;;16.80;8.65;;;;;;;3.95;61.95;99718.88;3480892;28;20464;-55
2021/04/28 04:50:27;;;;;;;20.77;10.43;;;;;;;4.06;61.21;99712.47;3469169;28;20057;-54
2021/04/28 04:52:08;;;;;;;18.27;8.82;;;;;;;4.21;60.92;99714.75;3477037;28;20430;-57
2021/04/28 04:53:50;;;;;;;20.17;9.15;;;;;;;4.33;59.98;99722.94;3483086;28;20045;-52
2021/04/28 04:55:32;;;;;;;26.08;9.73;;;;;;;4.46;61.41;99721.75;3478301;28;20089;-52
2021/04/28 04:57:13;;;;;;;19.92;10.18;;;;;;;4.54;60.80;99727.19;3481705;28;20056;-51
2021/04/28 04:58:55;;;;;;;22.63;10.43;;;;;;;4.66;61.16;99726.78;3480722;28;20102;-54
2021/04/28 05:00:38;;;;;;;23.23;9.88;;;;;;;4.75;59.58;99729.69;3479825;28;20045;-53
2021/04/28 05:02:19;;;;;;;21.65;10.82;;;;;;;4.83;59.04;99723.16;3482752;28;20044;-52
2021/04/28 05:04:01;;;;;;;20.02;10.07;;;;;;;4.96;59.11;99727.06;3478226;28;20076;-54
2021/04/28 05:05:42;;;;;;;21.40;10.57;;;;;;;5.07;58.77;99728.31;3482976;28;20171;-53
2021/04/28 05:07:23;;;;;;;20.92;10.30;;;;;;;5.20;58.47;99731.34;3479290;28;20044;-55
2021/04/28 05:09:06;;;;;;;24.98;11.23;;;;;;;5.34;58.26;99735.28;3480228;28;20407;-52
2021/04/28 05:10:47;;;;;;;20.35;10.75;;;;;;;5.47;57.74;99729.75;3471990;28;20053;-52
2021/04/28 05:12:28;;;;;;;22.55;11.02;;;;;;;5.60;56.92;99735.31;3471927;28;20076;-54
2021/04/28 05:14:10;;;;;;;21.35;10.50;;;;;;;5.70;56.58;99735.69;3477853;28;20078;-46
2021/04/28 05:15:52;;;;;;;18.38;9.25;;;;;;;5.81;56.41;99737.75;3479406;28;20080;-47
2021/04/28 05:17:33;;;;;;;27.23;10.32;;;;;;;5.89;56.28;99737.19;3482575;28;20449;-49
2021/04/28 05:19:15;;;;;;;21.17;9.45;;;;;;;6.01;56.58;99741.88;3478398;28;20048;-48
2021/04/28 05:20:57;;;;;;;21.00;9.05;;;;;;;6.08;56.11;99745.50;3481647;28;20102;-46
2021/04/28 05:22:38;;;;;;;21.20;9.32;;;;;;;6.17;55.86;99740.69;3479775;28;20049;-52
2021/04/28 05:24:19;;;;;;;22.50;10.63;;;;;;;6.26;54.33;99745.25;3479121;28;20354;-53
2021/04/28 05:26:01;;;;;;;24.05;10.10;;;;;;;6.35;52.67;99744.66;3469074;28;20057;-52
2021/04/28 05:27:42;;;;;;;21.98;10.15;;;;;;;6.45;52.86;99755.31;3474107;28;20053;-51
2021/04/28 05:29:24;;;;;;;19.42;8.88;;;;;;;6.59;53.02;99748.00;3482964;28;20049;-47
2021/04/28 05:31:06;;;;;;;19.60;8.80;;;;;;;6.74;51.91;99757.06;3477715;28;20103;-47
2021/04/28 05:32:49;;;;;;;12.88;7.95;;;;;;;6.87;50.64;99748.84;3480358;28;20076;-47
2021/04/28 05:34:30;;;;;;;19.52;8.40;;;;;;;6.99;49.86;99754.38;3480829;28;20074;-51
2021/04/28 05:36:12;;;;;;;16.13;8.60;;;;;;;7.13;50.11;99752.22;3479123;28;23767;-50
2021/04/28 05:37:53;;;;;;;15.35;7.55;;;;;;;7.25;49.91;99762.88;3469232;28;20459;-54
2021/04/28 05:39:34;;;;;;;22.25;9.50;;;;;;;7.33;49.02;99757.06;3472214;28;20486;-52
2021/04/28 05:41:16;;;;;;;13.93;7.20;;;;;;;7.47;49.75;99758.31;3468633;28;20076;-51
2021/04/28 05:42:57;;;;;;;14.48;6.75;;;;;;;7.61;47.51;99756.13;3477206;28;20521;-50
2021/04/28 05:44:39;;;;;;;12.25;6.38;;;;;;;7.72;46.42;99759.84;3482250;28;20490;-48
2021/04/28 05:46:21;;;;;;;18.80;7.88;;;;;;;7.81;49.48;99760.13;3479939;28;20056;-48
2021/04/28 05:48:03;;;;;;;25.00;7.88;;;;;;;7.86;47.77;99767.97;3478633;28;20052;-47
2021/04/28 05:49:44;;;;;;;13.43;6.88;;;;;;;7.86;48.98;99762.78;3481419;28;20049;-51
2021/04/28 05:51:26;;;;;;;17.85;7.10;;;;;;;7.80;47.03;99768.69;3477760;28;20052;-51
2021/04/28 05:53:07;;;;;;;13.43;5.10;;;;;;;7.85;46.03;99763.66;3482302;28;20080;-51
2021/04/28 05:54:49;;;;;;;10.23;4.60;;;;;;;7.90;44.46;99759.47;3479097;28;20056;-51
2021/04/28 05:56:46;;;;;;;8.63;4.07;;;;;;;7.92;43.76;99767.25;3479085;28;20128;-51
2021/04/28 05:58:29;;;;;;;6.20;3.58;;;;;;;7.96;43.65;99771.66;3480765;28;20510;-50
2021/04/28 06:00:14;;;;;;;7.30;3.78;;;;;;;7.99;44.27;99772.63;3477590;28;20053;-53
2021/04/28 06:01:56;;;;;;;5.35;3.55;;;;;;;8.06;43.59;99773.66;3482265;28;20115;-50
2021/04/28 06:03:38;;;;;;;6.00;3.67;;;;;;;8.08;43.01;99773.69;3473271;28;20049;-47
2021/04/28 06:05:20;;;;;;;5.43;2.83;;;;;;;8.11;43.39;99771.16;3468823;28;20060;-47
2021/04/28 06:07:01;;;;;;;4.50;2.92;;;;;;;8.16;42.35;99772.16;3479078;28;20092;-48
2021/04/28 06:08:43;;;;;;;5.82;3.50;;;;;;;8.18;42.82;99778.25;3480252;28;20053;-47
2021/04/28 06:10:24;;;;;;;7.35;3.60;;;;;;;8.11;43.07;99771.16;3480662;28;20191;-48
2021/04/28 06:12:06;;;;;;;7.53;3.58;;;;;;;8.23;46.01;99779.22;3477358;28;20107;-48
2021/04/28 06:13:48;;;;;;;6.15;3.60;;;;;;;8.40;48.94;99770.19;3480721;28;20506;-47
2021/04/28 06:15:30;;;;;;;6.30;3.90;;;;;;;8.60;43.72;99774.94;3477570;28;20083;-48
2021/04/28 06:17:12;;;;;;;9.05;3.85;;;;;;;8.78;41.97;99771.91;3481508;28;20104;-47
2021/04/28 06:18:53;;;;;;;6.82;3.40;;;;;;;8.95;42.18;99775.72;3471292;28;20088;-47
2021/04/28 06:20:35;;;;;;;7.00;3.92;;;;;;;9.11;46.74;99782.13;3468580;28;20064;-46
2021/04/28 06:22:17;;;;;;;7.40;4.20;;;;;;;9.21;43.52;99784.91;3480451;28;20140;-47
2021/04/28 06:24:03;;;;;;;7.70;4.72;;;;;;;9.16;42.82;99780.50;3477331;28;20052;-48
2021/04/28 06:25:45;;;;;;;9.45;5.22;;;;;;;9.12;44.66;99780.44;3482524;28;20045;-48
2021/04/28 06:27:27;;;;;;;11.82;6.28;;;;;;;9.11;44.68;99778.66;3478948;28;20418;-48
2021/04/28 06:29:09;;;;;;;11.10;5.97;;;;;;;9.10;43.60;99779.50;3481691;28;20111;-47
2021/04/28 06:30:51;;;;;;;8.70;6.10;;;;;;;9.10;44.75;99779.50;3479428;28;20083;-49
2021/04/28 06:32:32;;;;;;;10.95;4.75;;;;;;;9.09;42.18;99785.53;3478426;28;20525;-48
2021/04/28 06:34:13;;;;;;;6.68;3.58;;;;;;;9.07;42.75;99785.50;3481640;28;20540;-49
2021/04/28 06:35:55;;;;;;;8.73;4.57;;;;;;;9.16;47.50;99780.50;3478553;28;20048;-48
2021/04/28 06:37:37;;;;;;;8.43;4.32;;;;;;;9.28;41.86;99776.44;3482073;28;20498;-49
2021/04/28 06:39:18;;;;;;;11.80;5.43;;;;;;;9.46;44.06;99786.31;3478764;28;20051;-48
2021/04/28 06:41:00;;;;;;;8.90;3.70;;;;;;;9.49;41.12;99784.66;3480274;28;20059;-48
2021/04/28 06:42:41;;;;;;;7.68;4.07;;;;;;;9.29;39.28;99785.94;3479266;28;20060;-47
2021/04/28 06:44:23;;;;;;;7.03;4.10;;;;;;;9.23;41.94;99786.69;3479468;28;20118;-48
2021/04/28 06:46:06;;;;;;;4.80;3.20;;;;;;;9.22;40.33;99784.94;3480433;28;20514;-47
2021/04/28 06:47:47;;;;;;;6.20;3.20;;;;;;;9.27;42.75;99790.22;3477261;28;20143;-48
2021/04/28 06:49:29;;;;;;;4.28;2.47;;;;;;;9.32;39.92;99786.00;3481841;28;20110;-47
2021/04/28 06:51:10;;;;;;;5.00;2.47;;;;;;;9.36;44.13;99785.22;3473432;28;20053;-47
2021/04/28 06:52:53;;;;;;;3.30;2.30;;;;;;;9.31;39.02;99779.97;3469041;28;20068;-47
2021/04/28 06:54:34;;;;;;;5.30;3.20;;;;;;;9.32;40.97;99780.81;3479206;28;20071;-48
2021/04/28 06:56:16;;;;;;;5.70;3.08;;;;;;;9.47;45.16;99788.03;3478316;28;20050;-48
2021/04/28 06:57:57;;;;;;;5.68;3.15;;;;;;;9.60;42.36;99789.19;3480783;28;20143;-48
2021/04/28 06:59:38;;;;;;;3.45;2.72;;;;;;;9.57;39.29;99792.56;3478534;28;20099;-47
2021/04/28 07:01:21;;;;;;;5.38;2.67;;;;;;;9.62;41.06;99793.53;3481536;28;20505;-48
2021/04/28 07:03:03;;;;;;;5.18;2.70;;;;;;;9.65;39.81;99791.00;3476830;28;20425;-47
2021/04/28 07:04:44;;;;;;;4.13;2.55;;;;;;;9.75;40.13;99791.19;3481326;28;20195;-48
2021/04/28 07:06:25;;;;;;;8.13;2.55;;;;;;;9.71;39.28;99791.13;3479054;28;20045;-48
2021/04/28 07:08:07;;;;;;;3.55;1.80;;;;;;;9.80;39.56;99800.78;3479535;28;20057;-47
2021/04/28 07:09:48;;;;;;;4.65;3.05;;;;;;;9.71;39.26;99800.63;3483981;28;20053;-47
2021/04/28 07:11:29;;;;;;;8.85;2.60;;;;;;;9.78;39.03;99799.03;3479294;28;20111;-45
2021/04/28 07:13:11;;;;;;;4.45;2.38;;;;;;;9.85;38.55;99804.34;3482648;28;20533;-48
2021/04/28 07:14:52;;;;;;;5.00;3.03;;;;;;;9.89;37.02;99802.69;3480832;28;20549;-47
2021/04/28 07:16:34;;;;;;;7.25;3.10;;;;;;;10.04;37.94;99805.56;3482413;28;20052;-48
2021/04/28 07:18:18;;;;;;;4.35;3.13;;;;;;;10.20;40.94;99801.50;3480886;28;20425;-48
2021/04/28 07:19:59;;;;;;;5.90;2.90;;;;;;;10.21;38.18;99804.97;3480865;28;20049;-47
2021/04/28 07:21:40;;;;;;;5.93;2.40;;;;;;;10.32;38.65;99800.84;3483607;28;20564;-48
2021/04/28 07:23:22;;;;;;;3.55;2.42;;;;;;;10.52;40.05;99808.94;3480385;28;20052;-48
2021/04/28 07:25:04;;;;;;;8.48;2.92;;;;;;;10.61;37.47;99801.31;3483989;28;20337;-47
2021/04/28 07:26:45;;;;;;;4.60;2.42;;;;;;;10.66;35.58;99799.66;3480339;28;20053;-48
2021/04/28 07:28:28;;;;;;;5.05;2.58;;;;;;;10.77;37.35;99798.97;3483398;28;20426;-49
2021/04/28 07:30:12;;;;;;;3.42;2.10;;;;;;;10.76;38.36;99797.19;3481092;28;20045;-49
2021/04/28 07:31:53;;;;;;;6.75;2.67;;;;;;;10.85;37.79;99795.63;3479256;28;20041;-53
2021/04/28 07:33:35;;;;;;;5.22;2.63;;;;;;;10.93;37.69;99798.31;3483671;28;20144;-52
2021/04/28 07:35:18;;;;;;;6.10;3.08;;;;;;;10.91;36.94;99792.25;3480439;28;20045;-49
2021/04/28 07:37:00;;;;;;;9.30;2.53;;;;;;;10.92;37.07;99790.50;3483678;28;20053;-48
2021/04/28 07:38:42;;;;;;;12.30;2.65;;;;;;;10.90;36.75;99790.50;3480306;28;20057;-49
2021/04/28 07:40:23;;;;;;;6.25;2.15;;;;;;;10.70;34.51;99797.13;3482620;28;20053;-48
2021/04/28 07:42:05;;;;;;;4.03;2.08;;;;;;;10.61;35.38;99793.53;3480745;28;20045;-49
2021/04/28 07:43:46;;;;;;;3.85;2.15;;;;;;;10.66;35.75;99791.88;3481557;28;20572;-50
2021/04/28 07:45:28;;;;;;;3.15;1.77;;;;;;;10.69;33.98;99791.06;3470267;28;20046;-52
2021/04/28 07:47:10;;;;;;;4.90;2.10;;;;;;;10.70;34.44;99789.34;3475032;28;20053;-53
2021/04/28 07:48:51;;;;;;;3.35;2.03;;;;;;;10.62;34.40;99797.00;3483677;28;20049;-51
2021/04/28 07:50:33;;;;;;;7.22;2.35;;;;;;;10.54;33.78;99794.28;3480268;28;20045;-49
2021/04/28 07:52:15;;;;;;;2.58;1.85;;;;;;;10.59;34.44;99792.63;3481262;28;20060;-48
2021/04/28 07:53:56;;;;;;;3.38;2.10;;;;;;;10.62;34.14;99792.69;3481122;28;20106;-52
2021/04/28 07:55:38;;;;;;;3.55;1.75;;;;;;;10.64;33.23;99796.19;3480692;28;20046;-50